createdAt,value
2019-04-28T00:02:23.461Z,11.70
2019-04-28T00:04:51.969Z,11.50
2019-04-28T00:07:21.550Z,11.80
2019-04-28T00:09:51.155Z,11.50
2019-04-28T00:12:21.061Z,11.60
2019-04-28T00:14:51.657Z,11.80
2019-04-28T00:17:21.067Z,11.80
2019-04-28T00:19:51.601Z,11.80
2019-04-28T00:22:33.797Z,11.90
2019-04-28T00:25:06.641Z,11.60
2019-04-28T00:27:35.193Z,11.70
2019-04-28T00:30:07.035Z,11.60
2019-04-28T00:32:35.582Z,11.50
2019-04-28T00:35:05.007Z,11.50
2019-04-28T00:37:34.926Z,11.60
2019-04-28T00:40:04.081Z,11.30
2019-04-28T00:42:32.633Z,11.20
2019-04-28T00:45:01.858Z,11.20
2019-04-28T00:47:31.174Z,11.20
2019-04-28T00:50:01.959Z,11.50
2019-04-28T00:52:32.024Z,11.30
2019-04-28T00:55:01.176Z,11.30
2019-04-28T00:57:31.000Z,11.20
2019-04-28T01:00:02.182Z,11.10
2019-04-28T01:02:34.381Z,11.30
2019-04-28T01:05:02.908Z,11.20
2019-04-28T01:07:33.101Z,11.00
2019-04-28T01:10:01.836Z,11.10
2019-04-28T01:12:31.103Z,11.10
2019-04-28T01:15:04.041Z,11.10
2019-04-28T01:17:34.545Z,11.10
2019-04-28T01:20:05.536Z,11.10
2019-04-28T01:22:35.661Z,11.00
2019-04-28T01:25:07.082Z,11.00
2019-04-28T01:27:40.336Z,11.10
2019-04-28T01:30:11.413Z,11.10
2019-04-28T01:32:50.594Z,11.10
2019-04-28T01:35:20.830Z,11.10
2019-04-28T01:37:50.543Z,11.20
2019-04-28T01:40:20.510Z,10.90
2019-04-28T01:42:49.942Z,10.80
2019-04-28T01:45:20.527Z,10.90
2019-04-28T01:47:50.386Z,10.90
2019-04-28T01:50:20.490Z,10.80
2019-04-28T01:52:49.737Z,10.80
2019-04-28T01:55:19.979Z,10.90
2019-04-28T01:57:49.813Z,11.00
2019-04-28T02:00:25.050Z,11.20
2019-04-28T02:02:50.527Z,10.90
2019-04-28T02:05:19.740Z,10.90
2019-04-28T02:07:50.496Z,10.80
2019-04-28T02:10:40.051Z,10.70
2019-04-28T02:13:09.576Z,10.80
2019-04-28T02:15:40.045Z,10.70
2019-04-28T02:18:09.923Z,10.90
2019-04-28T02:20:40.178Z,11.00
2019-04-28T02:23:13.058Z,10.70
2019-04-28T02:25:41.614Z,10.80
2019-04-28T02:28:11.879Z,10.80
2019-04-28T02:30:48.929Z,10.80
2019-04-28T02:33:11.191Z,10.80
2019-04-28T02:35:41.882Z,10.90
2019-04-28T02:38:11.486Z,10.80
2019-04-28T02:40:40.738Z,10.90
2019-04-28T02:43:11.413Z,11.00
2019-04-28T02:45:41.273Z,10.60
2019-04-28T02:48:11.786Z,10.70
2019-04-28T02:50:47.800Z,10.50
2019-04-28T02:53:23.833Z,10.40
2019-04-28T02:55:52.418Z,10.40
2019-04-28T02:58:22.484Z,10.50
2019-04-28T03:01:04.759Z,10.60
2019-04-28T03:03:21.544Z,10.40
2019-04-28T03:05:51.292Z,10.40
2019-04-28T03:08:21.459Z,10.30
2019-04-28T03:10:50.881Z,10.40
2019-04-28T03:13:20.929Z,10.40
2019-04-28T03:15:51.609Z,10.40
2019-04-28T03:18:21.428Z,10.50
2019-04-28T03:20:51.563Z,10.40
2019-04-28T03:23:20.786Z,10.50
2019-04-28T03:25:54.030Z,10.40
2019-04-28T03:28:30.840Z,10.60
2019-04-28T03:31:06.384Z,10.50
2019-04-28T03:33:34.033Z,10.20
2019-04-28T03:36:07.041Z,10.40
2019-04-28T03:38:32.513Z,10.30
2019-04-28T03:41:01.236Z,10.30
2019-04-28T03:43:30.601Z,10.30
2019-04-28T03:46:03.631Z,10.10
2019-04-28T03:48:33.566Z,10.30
2019-04-28T03:51:01.422Z,10.20
2019-04-28T03:53:31.223Z,10.30
2019-04-28T03:56:01.678Z,10.30
2019-04-28T03:58:31.180Z,10.40
2019-04-28T04:01:02.963Z,10.30
2019-04-28T04:03:30.594Z,10.20
2019-04-28T04:06:00.778Z,10.30
2019-04-28T04:08:30.921Z,10.20
2019-04-28T04:11:04.064Z,10.20
2019-04-28T04:13:41.575Z,10.20
2019-04-28T04:16:14.719Z,10.30
2019-04-28T04:18:44.909Z,10.30
2019-04-28T04:21:13.501Z,10.30
2019-04-28T04:23:42.044Z,10.30
2019-04-28T04:26:11.631Z,10.30
2019-04-28T04:28:42.370Z,10.30
2019-04-28T04:31:10.993Z,10.20
2019-04-28T04:33:41.139Z,10.30
2019-04-28T04:36:11.530Z,10.40
2019-04-28T04:38:45.961Z,10.40
2019-04-28T04:41:11.241Z,10.40
2019-04-28T04:43:41.519Z,10.30
2019-04-28T04:46:14.656Z,10.30
2019-04-28T04:48:45.150Z,10.30
2019-04-28T04:51:13.878Z,10.30
2019-04-28T04:53:42.560Z,10.50
2019-04-28T04:56:11.212Z,10.50
2019-04-28T04:58:40.717Z,10.60
2019-04-28T05:01:13.604Z,10.60
2019-04-28T05:03:46.611Z,10.60
2019-04-28T05:06:34.089Z,10.70
2019-04-28T05:09:06.998Z,10.80
2019-04-28T05:11:35.890Z,11.00
2019-04-28T05:14:07.501Z,11.10
2019-04-28T05:16:36.152Z,11.00
2019-04-28T05:19:04.972Z,11.20
2019-04-28T05:21:33.616Z,11.10
2019-04-28T05:24:17.410Z,11.10
2019-04-28T05:26:49.093Z,10.90
2019-04-28T05:29:21.797Z,10.90
2019-04-28T05:31:50.199Z,10.80
2019-04-28T05:34:20.351Z,10.70
2019-04-28T05:36:50.495Z,10.90
2019-04-28T05:39:19.651Z,10.80
2019-04-28T05:41:50.239Z,10.80
2019-04-28T05:44:20.152Z,10.80
2019-04-28T05:46:50.632Z,11.00
2019-04-28T05:49:21.121Z,10.90
2019-04-28T05:52:06.330Z,10.70
2019-04-28T05:54:45.751Z,10.80
2019-04-28T05:57:20.547Z,10.60
2019-04-28T05:59:50.731Z,10.60
2019-04-28T06:02:40.853Z,10.60
2019-04-28T06:05:10.164Z,10.70
2019-04-28T06:07:40.567Z,11.00
2019-04-28T06:10:10.150Z,11.00
2019-04-28T06:12:40.566Z,11.00
2019-04-28T06:15:11.684Z,10.90
2019-04-28T06:17:39.784Z,10.80
2019-04-28T06:20:11.608Z,10.70
2019-04-28T06:22:39.294Z,10.90
2019-04-28T06:25:08.106Z,11.00
2019-04-28T06:27:36.640Z,10.90
2019-04-28T06:30:06.765Z,10.90
2019-04-28T06:32:35.796Z,10.70
2019-04-28T06:35:06.115Z,10.80
2019-04-28T06:37:37.293Z,10.90
2019-04-28T06:40:07.417Z,11.00
2019-04-28T06:42:35.957Z,10.90
2019-04-28T06:45:06.885Z,10.80
2019-04-28T06:47:35.501Z,10.80
2019-04-28T06:50:06.301Z,10.80
2019-04-28T06:52:34.925Z,10.70
2019-04-28T06:55:04.368Z,10.90
2019-04-28T06:57:32.918Z,10.70
2019-04-28T07:00:01.502Z,10.90
2019-04-28T07:02:30.126Z,10.90
2019-04-28T07:05:02.069Z,10.90
2019-04-28T07:07:28.966Z,11.10
2019-04-28T07:09:57.578Z,11.10
2019-04-28T07:12:26.139Z,11.10
2019-04-28T07:14:54.745Z,11.20
2019-04-28T07:17:23.296Z,11.30
2019-04-28T07:20:11.874Z,11.40
2019-04-28T07:22:40.349Z,11.00
2019-04-28T07:25:09.006Z,10.80
2019-04-28T07:27:37.557Z,11.00
2019-04-28T07:30:07.834Z,10.90
2019-04-28T07:32:36.311Z,11.10
2019-04-28T07:35:07.863Z,11.30
2019-04-28T07:37:36.431Z,11.30
2019-04-28T07:40:06.649Z,11.00
2019-04-28T07:42:35.153Z,11.30
2019-04-28T07:45:05.445Z,11.60
2019-04-28T07:47:34.105Z,11.70
2019-04-28T07:50:03.035Z,11.80
2019-04-28T07:52:33.254Z,11.60
2019-04-28T07:55:01.727Z,12.00
2019-04-28T07:57:30.340Z,12.20
2019-04-28T07:59:58.902Z,12.00
2019-04-28T08:02:27.481Z,12.20
2019-04-28T08:04:56.055Z,12.20
2019-04-28T08:07:24.662Z,12.20
2019-04-28T08:09:53.146Z,12.10
2019-04-28T08:12:21.840Z,12.20
2019-04-28T08:14:50.400Z,11.90
2019-04-28T08:17:18.981Z,11.80
2019-04-28T08:19:47.535Z,11.90
2019-04-28T08:22:16.126Z,11.70
2019-04-28T08:24:44.693Z,11.70
2019-04-28T08:27:13.269Z,12.00
2019-04-28T08:29:41.838Z,12.00
2019-04-28T08:32:18.072Z,11.90
2019-04-28T08:34:46.834Z,12.10
2019-04-28T08:37:15.409Z,12.30
2019-04-28T08:39:43.961Z,12.40
2019-04-28T08:42:12.617Z,12.50
2019-04-28T08:44:41.170Z,12.40
2019-04-28T08:47:09.692Z,12.40
2019-04-28T08:49:38.165Z,12.40
2019-04-28T08:52:06.753Z,12.80
2019-04-28T08:54:35.310Z,12.70
2019-04-28T08:57:04.129Z,12.90
2019-04-28T08:59:32.704Z,13.40
2019-04-28T09:02:01.184Z,13.50
2019-04-28T09:04:29.839Z,13.10
2019-04-28T09:06:58.499Z,12.90
2019-04-28T09:09:27.164Z,13.00
2019-04-28T09:11:55.725Z,12.70
2019-04-28T09:14:24.296Z,12.80
2019-04-28T09:16:52.769Z,12.90
2019-04-28T09:19:21.481Z,12.90
2019-04-28T09:21:50.116Z,13.30
2019-04-28T09:24:18.713Z,13.40
2019-04-28T09:26:47.250Z,13.50
2019-04-28T09:29:15.865Z,13.20
2019-04-28T09:31:44.422Z,13.20
2019-04-28T09:34:13.022Z,13.30
2019-04-28T09:36:41.587Z,13.40
2019-04-28T09:39:11.943Z,13.40
2019-04-28T09:41:42.210Z,13.40
2019-04-28T09:44:18.135Z,13.40
2019-04-28T09:46:48.338Z,13.30
2019-04-28T09:49:16.905Z,13.40
2019-04-28T09:51:45.451Z,13.70
2019-04-28T09:54:14.030Z,14.10
2019-04-28T09:56:55.767Z,14.40
2019-04-28T09:59:12.891Z,14.20
2019-04-28T10:01:41.373Z,14.20
2019-04-28T10:04:09.947Z,14.50
2019-04-28T10:06:38.429Z,14.30
2019-04-28T10:09:08.332Z,15.20
2019-04-28T10:11:36.871Z,16.20
2019-04-28T10:14:05.521Z,16.60
2019-04-28T10:16:34.009Z,17.20
2019-04-28T10:19:02.535Z,16.90
2019-04-28T10:21:31.089Z,17.20
2019-04-28T10:23:59.642Z,16.90
2019-04-28T10:26:28.297Z,16.10
2019-04-28T10:28:56.875Z,16.10
2019-04-28T10:31:25.525Z,16.30
2019-04-28T10:33:55.736Z,16.30
2019-04-28T10:36:24.312Z,15.90
2019-04-28T10:38:54.519Z,15.90
2019-04-28T10:41:36.688Z,15.50
2019-04-28T10:44:05.309Z,15.40
2019-04-28T10:46:33.927Z,15.30
2019-04-28T10:49:02.514Z,15.20
2019-04-28T10:51:31.098Z,15.10
2019-04-28T10:53:59.656Z,15.00
2019-04-28T10:56:28.240Z,15.10
2019-04-28T10:58:57.638Z,15.20
2019-04-28T11:01:26.230Z,15.50
2019-04-28T11:03:56.430Z,17.50
2019-04-28T11:06:25.011Z,17.60
2019-04-28T11:09:11.908Z,17.00
2019-04-28T11:11:40.565Z,16.60
2019-04-28T11:14:09.142Z,16.00
2019-04-28T11:16:38.685Z,16.00
2019-04-28T11:19:07.409Z,15.50
2019-04-28T11:21:36.059Z,15.40
2019-04-28T11:24:04.741Z,15.20
2019-04-28T11:26:33.245Z,15.10
2019-04-28T11:29:01.736Z,15.00
2019-04-28T11:31:30.380Z,14.90
2019-04-28T11:34:00.494Z,14.70
2019-04-28T11:36:29.242Z,14.20
2019-04-28T11:38:57.904Z,14.20
2019-04-28T11:41:26.561Z,14.40
2019-04-28T11:43:55.114Z,14.20
2019-04-28T11:46:24.352Z,14.20
2019-04-28T11:48:52.838Z,14.10
2019-04-28T11:51:21.394Z,14.00
2019-04-28T11:53:49.990Z,13.80
2019-04-28T11:56:18.622Z,13.70
2019-04-28T11:58:47.123Z,13.40
2019-04-28T12:01:16.131Z,13.60
2019-04-28T12:03:44.716Z,13.50
2019-04-28T12:06:13.507Z,13.60
2019-04-28T12:08:42.158Z,13.70
2019-04-28T12:11:20.966Z,13.70
2019-04-28T12:14:14.727Z,13.90
2019-04-28T12:16:50.911Z,14.20
2019-04-28T12:19:26.634Z,14.30
2019-04-28T12:21:55.285Z,14.50
2019-04-28T12:24:23.918Z,14.60
2019-04-28T12:26:52.511Z,14.70
2019-04-28T12:29:21.094Z,14.70
2019-04-28T12:31:49.582Z,14.30
2019-04-28T12:34:18.168Z,14.00
2019-04-28T12:36:46.722Z,14.10
2019-04-28T12:39:15.338Z,13.90
2019-04-28T12:41:43.870Z,13.90
2019-04-28T12:44:12.459Z,14.20
2019-04-28T12:46:41.017Z,14.40
2019-04-28T12:49:11.248Z,14.40
2019-04-28T12:51:39.805Z,14.50
2019-04-28T12:54:10.047Z,14.40
2019-04-28T12:56:38.604Z,14.40
2019-04-28T12:59:08.837Z,14.50
2019-04-28T13:01:44.724Z,14.50
2019-04-28T13:04:23.935Z,14.30
2019-04-28T13:07:00.086Z,14.40
2019-04-28T13:09:28.818Z,14.40
2019-04-28T13:11:57.366Z,14.60
2019-04-28T13:14:25.958Z,14.80
2019-04-28T13:16:55.104Z,15.00
2019-04-28T13:19:23.672Z,15.20
2019-04-28T13:21:52.236Z,15.40
2019-04-28T13:24:20.746Z,15.60
2019-04-28T13:26:52.045Z,16.20
2019-04-28T13:29:19.536Z,16.40
2019-04-28T13:31:48.100Z,16.80
2019-04-28T13:34:18.326Z,16.80
2019-04-28T13:36:46.887Z,17.40
2019-04-28T13:39:17.085Z,16.70
2019-04-28T13:41:45.745Z,16.30
2019-04-28T13:44:15.935Z,16.20
2019-04-28T13:46:44.526Z,16.60
2019-04-28T13:49:14.640Z,17.00
2019-04-28T13:51:43.236Z,17.50
2019-04-28T13:54:13.419Z,18.10
2019-04-28T13:56:42.070Z,18.10
2019-04-28T13:59:12.297Z,18.10
2019-04-28T14:01:48.267Z,18.00
2019-04-28T14:04:27.057Z,17.90
2019-04-28T14:06:56.261Z,17.90
2019-04-28T14:09:24.804Z,17.80
2019-04-28T14:11:53.376Z,17.60
2019-04-28T14:14:21.971Z,17.40
2019-04-28T14:16:50.529Z,17.30
2019-04-28T14:19:19.018Z,17.10
2019-04-28T14:21:47.645Z,17.10
2019-04-28T14:24:16.179Z,17.00
2019-04-28T14:26:44.737Z,16.90
2019-04-28T14:29:13.422Z,17.10
2019-04-28T14:31:41.920Z,17.20
2019-04-28T14:34:10.496Z,16.90
2019-04-28T14:36:42.315Z,17.30
2019-04-28T14:39:09.351Z,16.50
2019-04-28T14:41:37.851Z,16.10
2019-04-28T14:44:06.488Z,16.10
2019-04-28T14:46:35.050Z,16.60
2019-04-28T14:49:03.697Z,16.70
2019-04-28T14:51:32.250Z,16.70
2019-04-28T14:54:00.811Z,16.50
2019-04-28T14:56:29.292Z,16.40
2019-04-28T14:58:57.872Z,16.50
2019-04-28T15:01:39.916Z,16.10
2019-04-28T15:04:12.933Z,16.20
2019-04-28T15:06:55.199Z,16.60
2019-04-28T15:09:17.675Z,16.90
2019-04-28T15:12:57.867Z,16.70
2019-04-28T15:15:58.744Z,16.80
2019-04-28T15:18:57.853Z,16.90
2019-04-28T15:21:47.088Z,17.20
2019-04-28T15:27:53.273Z,17.20
2019-04-28T15:34:22.683Z,16.30
2019-04-28T15:40:28.930Z,16.70
2019-04-28T15:51:15.832Z,16.70
2019-04-28T15:53:46.032Z,16.80
2019-04-28T16:07:42.774Z,17.00
2019-04-28T16:10:11.478Z,17.20
2019-04-28T16:12:40.076Z,16.80
2019-04-28T16:15:09.078Z,16.50
2019-04-28T16:17:37.667Z,16.30
2019-04-28T16:20:07.105Z,16.30
2019-04-28T16:22:35.688Z,16.20
2019-04-28T16:25:06.187Z,16.30
2019-04-28T16:27:34.774Z,16.40
2019-04-28T16:30:04.308Z,16.30
2019-04-28T16:32:32.890Z,16.20
2019-04-28T16:35:01.395Z,16.10
2019-04-28T16:37:38.697Z,16.10
2019-04-28T16:40:00.226Z,16.20
2019-04-28T16:42:29.327Z,16.10
2019-04-28T16:44:58.541Z,16.10
2019-04-28T16:47:27.120Z,16.10
2019-04-28T16:49:55.610Z,16.10
2019-04-28T16:52:24.195Z,16.10
2019-04-28T16:54:54.314Z,16.00
2019-04-28T16:57:36.406Z,16.00
2019-04-28T17:00:24.617Z,15.90
2019-04-28T17:02:53.186Z,15.70
2019-04-28T17:05:22.085Z,15.60
2019-04-28T17:07:52.730Z,15.50
2019-04-28T17:10:20.942Z,15.50
2019-04-28T17:12:49.534Z,15.40
2019-04-28T17:15:18.164Z,15.40
2019-04-28T17:17:47.127Z,15.40
2019-04-28T17:20:15.882Z,15.50
2019-04-28T17:22:44.546Z,15.40
2019-04-28T17:25:13.432Z,15.30
2019-04-28T17:27:42.014Z,15.30
2019-04-28T17:30:12.306Z,15.30
2019-04-28T17:32:41.329Z,15.30
2019-04-28T17:35:10.076Z,15.20
2019-04-28T17:37:38.699Z,15.10
2019-04-28T17:40:07.238Z,15.20
2019-04-28T17:42:35.867Z,15.10
2019-04-28T17:45:07.410Z,15.10
2019-04-28T17:47:36.038Z,15.10
2019-04-28T17:50:05.441Z,15.10
2019-04-28T17:52:34.015Z,15.00
2019-04-28T17:55:02.678Z,14.90
2019-04-28T17:57:31.239Z,14.90
2019-04-28T18:00:01.487Z,14.90
2019-04-28T18:02:47.990Z,14.80
2019-04-28T18:05:18.218Z,14.60
2019-04-28T18:07:49.624Z,14.50
2019-04-28T18:10:18.916Z,14.60
2019-04-28T18:12:59.849Z,14.60
2019-04-28T18:15:25.590Z,14.60
2019-04-28T18:18:01.577Z,14.60
2019-04-28T18:20:30.238Z,14.50
2019-04-28T18:22:58.787Z,14.50
2019-04-28T18:25:27.522Z,14.40
2019-04-28T18:27:56.079Z,14.40
2019-04-28T18:30:26.314Z,14.30
2019-04-28T18:33:08.534Z,14.30
2019-04-28T18:35:44.514Z,14.30
2019-04-28T18:38:14.780Z,14.30
2019-04-28T18:40:45.011Z,14.20
2019-04-28T18:43:31.340Z,14.20
2019-04-28T18:45:59.926Z,14.20
2019-04-28T18:48:30.430Z,14.10
2019-04-28T18:50:59.070Z,14.00
2019-04-28T18:53:27.558Z,14.10
2019-04-28T18:55:56.074Z,14.00
2019-04-28T18:58:24.682Z,14.00
2019-04-28T19:00:54.884Z,14.00
2019-04-28T19:03:23.528Z,14.00
2019-04-28T19:05:53.554Z,14.00
2019-04-28T19:08:32.817Z,13.90
2019-04-28T19:11:12.170Z,13.90
2019-04-28T19:13:45.066Z,13.80
2019-04-28T19:16:27.264Z,13.80
2019-04-28T19:18:57.588Z,13.80
2019-04-28T19:21:26.164Z,13.70
2019-04-28T19:23:54.716Z,13.70
2019-04-28T19:26:23.374Z,13.70
2019-04-28T19:28:51.933Z,13.70
2019-04-28T19:31:20.590Z,13.60
2019-04-28T19:33:49.074Z,13.60
2019-04-28T19:36:17.642Z,13.60
2019-04-28T19:38:46.234Z,13.60
2019-04-28T19:41:14.874Z,13.50
2019-04-28T19:43:43.396Z,13.50
2019-04-28T19:46:13.597Z,13.50
2019-04-28T19:48:42.224Z,13.50
2019-04-28T19:51:10.778Z,13.40
2019-04-28T19:53:39.408Z,13.40
2019-04-28T19:56:09.608Z,13.40
2019-04-28T19:58:57.916Z,13.30
2019-04-28T20:01:28.126Z,13.30
2019-04-28T20:03:56.722Z,13.20
2019-04-28T20:06:25.317Z,13.20
2019-04-28T20:08:53.826Z,13.20
2019-04-28T20:11:22.390Z,13.20
2019-04-28T20:13:51.086Z,13.10
2019-04-28T20:16:19.656Z,13.10
2019-04-28T20:18:49.042Z,13.10
2019-04-28T20:21:17.672Z,13.10
2019-04-28T20:23:46.408Z,13.00
2019-04-28T20:26:14.936Z,13.00
2019-04-28T20:28:43.552Z,13.00
2019-04-28T20:31:12.114Z,12.90
2019-04-28T20:33:40.707Z,12.90
2019-04-28T20:36:13.571Z,12.90
2019-04-28T20:38:44.145Z,12.90
2019-04-28T20:41:20.262Z,12.90
2019-04-28T20:43:48.849Z,12.80
2019-04-28T20:46:17.415Z,12.80
2019-04-28T20:48:45.926Z,12.80
2019-04-28T20:51:14.476Z,12.80
2019-04-28T20:53:42.998Z,12.70
2019-04-28T20:56:11.556Z,12.70
2019-04-28T20:58:40.115Z,12.70
2019-04-28T21:01:08.694Z,12.70
2019-04-28T21:03:38.661Z,12.70
2019-04-28T21:06:07.346Z,12.70
2019-04-28T21:08:35.925Z,12.70
2019-04-28T21:11:04.492Z,12.70
2019-04-28T21:13:33.008Z,12.70
2019-04-28T21:16:01.698Z,12.70
2019-04-28T21:18:30.337Z,12.70
2019-04-28T21:20:58.911Z,12.70
2019-04-28T21:23:27.463Z,12.70
2019-04-28T21:25:56.115Z,12.70
2019-04-28T21:28:24.594Z,12.70
2019-04-28T21:30:53.182Z,12.70
2019-04-28T21:33:21.754Z,12.70
2019-04-28T21:35:50.356Z,12.80
2019-04-28T21:38:18.913Z,12.70
2019-04-28T21:40:47.497Z,12.80
2019-04-28T21:43:20.787Z,12.80
2019-04-28T21:45:57.246Z,12.70
2019-04-28T21:48:33.634Z,12.70
2019-04-28T21:51:02.467Z,12.70
2019-04-28T21:53:31.095Z,12.70
2019-04-28T21:55:59.683Z,12.70
2019-04-28T21:58:33.231Z,12.60
2019-04-28T22:00:58.964Z,12.60
2019-04-28T22:03:27.443Z,12.60
2019-04-28T22:05:56.084Z,12.60
2019-04-28T22:08:24.585Z,12.60
2019-04-28T22:10:53.146Z,12.50
2019-04-28T22:13:21.702Z,12.50
2019-04-28T22:15:50.386Z,12.40
2019-04-28T22:18:18.952Z,12.50
2019-04-28T22:20:47.542Z,12.50
2019-04-28T22:23:23.638Z,12.40
2019-04-28T22:25:52.186Z,12.40
2019-04-28T22:28:20.741Z,12.30
2019-04-28T22:30:49.318Z,12.40
2019-04-28T22:33:17.882Z,12.30
2019-04-28T22:35:46.546Z,12.30
2019-04-28T22:38:15.133Z,12.30
2019-04-28T22:40:43.694Z,12.30
2019-04-28T22:43:12.358Z,12.30
2019-04-28T22:45:41.004Z,12.30
2019-04-28T22:48:11.150Z,12.30
2019-04-28T22:50:42.780Z,12.30
2019-04-28T22:53:11.946Z,12.20
2019-04-28T22:55:42.102Z,12.20
2019-04-28T22:58:28.866Z,12.20
2019-04-28T23:00:59.136Z,12.20
2019-04-28T23:03:29.506Z,12.20
2019-04-28T23:05:58.192Z,12.10
2019-04-28T23:08:27.008Z,12.10
2019-04-28T23:10:55.666Z,12.10
2019-04-28T23:13:24.176Z,12.10
2019-04-28T23:15:52.797Z,12.10
2019-04-28T23:18:21.954Z,12.10
2019-04-28T23:20:53.392Z,12.00
2019-04-28T23:23:21.972Z,12.00
2019-04-28T23:25:50.473Z,12.10
2019-04-28T23:28:19.029Z,12.10
2019-04-28T23:30:47.638Z,12.10
2019-04-28T23:33:16.133Z,12.10
2019-04-28T23:35:44.611Z,12.10
2019-04-28T23:38:13.330Z,12.10
2019-04-28T23:40:43.524Z,12.00
2019-04-28T23:43:16.680Z,12.10
2019-04-28T23:45:45.222Z,12.10
2019-04-28T23:48:13.774Z,11.90
2019-04-28T23:50:43.993Z,12.00
2019-04-28T23:53:14.149Z,12.00
2019-04-28T23:55:42.722Z,12.00
2019-04-28T23:58:11.276Z,12.00
